sensor_id;sensor_type;location;lat;lon;timestamp;temperature;humidity
7530;DHT22;3806;52.270;10.544;2023-07-29T00:02:23;20.10;99.90
7530;DHT22;3806;52.270;10.544;2023-07-29T00:04:49;20.10;99.90
7530;DHT22;3806;52.270;10.544;2023-07-29T00:07:14;20.10;99.90
7530;DHT22;3806;52.270;10.544;2023-07-29T00:09:40;20.10;99.90
7530;DHT22;3806;52.270;10.544;2023-07-29T00:12:06;20.10;99.90
7530;DHT22;3806;52.270;10.544;2023-07-29T00:14:31;20.10;99.90
7530;DHT22;3806;52.270;10.544;2023-07-29T00:16:57;20.10;99.90
7530;DHT22;3806;52.270;10.544;2023-07-29T00:19:25;20.10;99.90
7530;DHT22;3806;52.270;10.544;2023-07-29T00:21:51;20.10;99.90
7530;DHT22;3806;52.270;10.544;2023-07-29T00:24:17;20.10;99.90
7530;DHT22;3806;52.270;10.544;2023-07-29T00:26:42;20.10;99.90
7530;DHT22;3806;52.270;10.544;2023-07-29T00:29:08;20.10;99.90
7530;DHT22;3806;52.270;10.544;2023-07-29T00:31:33;20.10;99.90
7530;DHT22;3806;52.270;10.544;2023-07-29T00:33:59;20.10;99.90
7530;DHT22;3806;52.270;10.544;2023-07-29T00:36:24;20.10;99.90
7530;DHT22;3806;52.270;10.544;2023-07-29T00:38:50;20.20;99.90
7530;DHT22;3806;52.270;10.544;2023-07-29T00:41:16;20.20;99.90
7530;DHT22;3806;52.270;10.544;2023-07-29T00:43:41;20.20;99.90
7530;DHT22;3806;52.270;10.544;2023-07-29T00:46:08;20.20;99.90
7530;DHT22;3806;52.270;10.544;2023-07-29T00:48:35;20.20;99.90
7530;DHT22;3806;52.270;10.544;2023-07-29T00:51:00;20.30;99.90
7530;DHT22;3806;52.270;10.544;2023-07-29T00:53:26;20.30;99.90
7530;DHT22;3806;52.270;10.544;2023-07-29T00:55:51;20.30;99.90
7530;DHT22;3806;52.270;10.544;2023-07-29T00:58:17;20.30;99.90
7530;DHT22;3806;52.270;10.544;2023-07-29T01:00:44;20.30;99.90
7530;DHT22;3806;52.270;10.544;2023-07-29T01:03:10;20.20;99.90
7530;DHT22;3806;52.270;10.544;2023-07-29T01:06:01;20.20;99.90
7530;DHT22;3806;52.270;10.544;2023-07-29T01:14:04;20.20;99.90
7530;DHT22;3806;52.270;10.544;2023-07-29T01:16:35;20.20;99.90
7530;DHT22;3806;52.270;10.544;2023-07-29T01:19:06;20.20;99.90
7530;DHT22;3806;52.270;10.544;2023-07-29T01:21:35;20.10;99.90
7530;DHT22;3806;52.270;10.544;2023-07-29T01:24:01;20.10;99.90
7530;DHT22;3806;52.270;10.544;2023-07-29T01:26:27;20.10;99.90
7530;DHT22;3806;52.270;10.544;2023-07-29T01:28:55;20.10;99.90
7530;DHT22;3806;52.270;10.544;2023-07-29T01:31:34;20.10;99.90
7530;DHT22;3806;52.270;10.544;2023-07-29T01:34:17;20.10;99.90
7530;DHT22;3806;52.270;10.544;2023-07-29T01:36:45;20.10;99.90
7530;DHT22;3806;52.270;10.544;2023-07-29T01:39:12;20.10;99.90
7530;DHT22;3806;52.270;10.544;2023-07-29T01:41:39;20.10;99.90
7530;DHT22;3806;52.270;10.544;2023-07-29T01:44:06;20.10;99.90
7530;DHT22;3806;52.270;10.544;2023-07-29T01:46:33;20.10;99.90
7530;DHT22;3806;52.270;10.544;2023-07-29T01:48:59;20.10;99.90
7530;DHT22;3806;52.270;10.544;2023-07-29T01:51:25;20.10;99.90
7530;DHT22;3806;52.270;10.544;2023-07-29T01:53:50;20.00;99.90
7530;DHT22;3806;52.270;10.544;2023-07-29T01:56:16;20.00;99.90
7530;DHT22;3806;52.270;10.544;2023-07-29T01:58:41;20.00;99.90
7530;DHT22;3806;52.270;10.544;2023-07-29T02:01:07;20.00;99.90
7530;DHT22;3806;52.270;10.544;2023-07-29T02:03:32;20.00;99.90
7530;DHT22;3806;52.270;10.544;2023-07-29T02:05:58;20.00;99.90
7530;DHT22;3806;52.270;10.544;2023-07-29T02:08:23;20.00;99.90
7530;DHT22;3806;52.270;10.544;2023-07-29T02:10:49;19.90;99.90
7530;DHT22;3806;52.270;10.544;2023-07-29T02:13:15;20.00;99.90
7530;DHT22;3806;52.270;10.544;2023-07-29T02:15:40;19.90;99.90
7530;DHT22;3806;52.270;10.544;2023-07-29T02:18:06;19.90;99.90
7530;DHT22;3806;52.270;10.544;2023-07-29T02:20:32;19.90;99.90
7530;DHT22;3806;52.270;10.544;2023-07-29T02:22:58;19.80;99.90
7530;DHT22;3806;52.270;10.544;2023-07-29T02:25:23;19.80;99.90
7530;DHT22;3806;52.270;10.544;2023-07-29T02:27:49;19.80;99.90
7530;DHT22;3806;52.270;10.544;2023-07-29T02:30:14;19.80;99.90
7530;DHT22;3806;52.270;10.544;2023-07-29T02:32:40;19.80;99.90
7530;DHT22;3806;52.270;10.544;2023-07-29T02:35:06;19.80;99.90
7530;DHT22;3806;52.270;10.544;2023-07-29T02:37:31;19.80;99.90
7530;DHT22;3806;52.270;10.544;2023-07-29T02:39:57;19.80;99.90
7530;DHT22;3806;52.270;10.544;2023-07-29T02:42:22;19.80;99.90
7530;DHT22;3806;52.270;10.544;2023-07-29T02:44:48;19.80;99.90
7530;DHT22;3806;52.270;10.544;2023-07-29T02:47:13;19.80;99.90
7530;DHT22;3806;52.270;10.544;2023-07-29T02:49:39;19.80;99.90
7530;DHT22;3806;52.270;10.544;2023-07-29T02:52:07;19.70;99.90
7530;DHT22;3806;52.270;10.544;2023-07-29T02:54:32;19.70;99.90
7530;DHT22;3806;52.270;10.544;2023-07-29T02:56:58;19.70;99.90
7530;DHT22;3806;52.270;10.544;2023-07-29T02:59:23;19.70;99.90
7530;DHT22;3806;52.270;10.544;2023-07-29T03:01:50;19.70;99.90
7530;DHT22;3806;52.270;10.544;2023-07-29T03:04:15;19.70;99.90
7530;DHT22;3806;52.270;10.544;2023-07-29T03:06:41;19.70;99.90
7530;DHT22;3806;52.270;10.544;2023-07-29T03:09:07;19.70;99.90
7530;DHT22;3806;52.270;10.544;2023-07-29T03:11:32;19.70;99.90
7530;DHT22;3806;52.270;10.544;2023-07-29T03:13:58;19.70;99.90
7530;DHT22;3806;52.270;10.544;2023-07-29T03:16:23;19.70;99.90
7530;DHT22;3806;52.270;10.544;2023-07-29T03:18:49;19.70;99.90
7530;DHT22;3806;52.270;10.544;2023-07-29T03:21:15;19.70;99.90
7530;DHT22;3806;52.270;10.544;2023-07-29T03:23:41;19.70;99.90
7530;DHT22;3806;52.270;10.544;2023-07-29T03:26:07;19.70;99.90
7530;DHT22;3806;52.270;10.544;2023-07-29T03:28:37;19.70;99.90
7530;DHT22;3806;52.270;10.544;2023-07-29T03:31:03;19.70;99.90
7530;DHT22;3806;52.270;10.544;2023-07-29T03:33:29;19.70;99.90
7530;DHT22;3806;52.270;10.544;2023-07-29T03:35:55;19.70;99.90
7530;DHT22;3806;52.270;10.544;2023-07-29T03:38:21;19.70;99.90
7530;DHT22;3806;52.270;10.544;2023-07-29T03:40:46;19.70;99.90
7530;DHT22;3806;52.270;10.544;2023-07-29T03:43:12;19.70;99.90
7530;DHT22;3806;52.270;10.544;2023-07-29T03:45:39;19.70;99.90
7530;DHT22;3806;52.270;10.544;2023-07-29T03:48:05;19.70;99.90
7530;DHT22;3806;52.270;10.544;2023-07-29T03:50:30;19.70;99.90
7530;DHT22;3806;52.270;10.544;2023-07-29T03:52:56;19.80;99.90
7530;DHT22;3806;52.270;10.544;2023-07-29T03:55:22;19.80;99.90
7530;DHT22;3806;52.270;10.544;2023-07-29T03:57:48;19.80;99.90
7530;DHT22;3806;52.270;10.544;2023-07-29T04:00:13;19.90;99.90
7530;DHT22;3806;52.270;10.544;2023-07-29T04:02:39;19.90;99.90
7530;DHT22;3806;52.270;10.544;2023-07-29T04:05:06;19.90;99.90
7530;DHT22;3806;52.270;10.544;2023-07-29T04:07:34;19.90;99.90
7530;DHT22;3806;52.270;10.544;2023-07-29T04:10:00;20.00;99.90
7530;DHT22;3806;52.270;10.544;2023-07-29T04:12:26;20.00;99.90
7530;DHT22;3806;52.270;10.544;2023-07-29T04:14:52;20.10;99.90
7530;DHT22;3806;52.270;10.544;2023-07-29T04:17:17;20.10;99.90
7530;DHT22;3806;52.270;10.544;2023-07-29T04:19:43;20.20;99.90
7530;DHT22;3806;52.270;10.544;2023-07-29T04:22:09;20.20;99.90
7530;DHT22;3806;52.270;10.544;2023-07-29T04:24:34;20.30;99.90
7530;DHT22;3806;52.270;10.544;2023-07-29T04:27:00;20.30;99.90
7530;DHT22;3806;52.270;10.544;2023-07-29T04:29:25;20.30;99.90
7530;DHT22;3806;52.270;10.544;2023-07-29T04:31:51;20.30;99.90
7530;DHT22;3806;52.270;10.544;2023-07-29T04:34:18;20.30;99.90
7530;DHT22;3806;52.270;10.544;2023-07-29T04:36:44;20.40;99.90
7530;DHT22;3806;52.270;10.544;2023-07-29T04:39:10;20.50;99.90
7530;DHT22;3806;52.270;10.544;2023-07-29T04:41:36;20.50;99.90
7530;DHT22;3806;52.270;10.544;2023-07-29T04:44:01;20.60;99.90
7530;DHT22;3806;52.270;10.544;2023-07-29T04:46:27;20.70;99.90
7530;DHT22;3806;52.270;10.544;2023-07-29T04:48:52;20.80;99.90
7530;DHT22;3806;52.270;10.544;2023-07-29T04:51:18;21.00;99.90
7530;DHT22;3806;52.270;10.544;2023-07-29T04:53:43;21.10;99.90
7530;DHT22;3806;52.270;10.544;2023-07-29T04:56:09;21.20;99.90
7530;DHT22;3806;52.270;10.544;2023-07-29T04:58:35;21.30;99.90
7530;DHT22;3806;52.270;10.544;2023-07-29T05:01:01;21.30;99.90
7530;DHT22;3806;52.270;10.544;2023-07-29T05:03:28;21.40;99.90
7530;DHT22;3806;52.270;10.544;2023-07-29T05:05:53;21.50;99.90
7530;DHT22;3806;52.270;10.544;2023-07-29T05:08:21;21.60;99.90
7530;DHT22;3806;52.270;10.544;2023-07-29T05:10:50;21.70;99.90
7530;DHT22;3806;52.270;10.544;2023-07-29T05:13:15;21.80;99.90
7530;DHT22;3806;52.270;10.544;2023-07-29T05:15:41;21.90;99.90
7530;DHT22;3806;52.270;10.544;2023-07-29T05:18:06;22.00;99.90
7530;DHT22;3806;52.270;10.544;2023-07-29T05:20:32;22.00;99.90
7530;DHT22;3806;52.270;10.544;2023-07-29T05:22:57;22.00;99.90
7530;DHT22;3806;52.270;10.544;2023-07-29T05:25:23;22.00;99.90
7530;DHT22;3806;52.270;10.544;2023-07-29T05:27:49;21.90;99.90
7530;DHT22;3806;52.270;10.544;2023-07-29T05:30:14;21.90;99.90
7530;DHT22;3806;52.270;10.544;2023-07-29T05:32:40;21.80;99.90
7530;DHT22;3806;52.270;10.544;2023-07-29T05:35:06;21.70;99.90
7530;DHT22;3806;52.270;10.544;2023-07-29T05:37:31;21.60;99.90
7530;DHT22;3806;52.270;10.544;2023-07-29T05:39:57;21.50;99.90
7530;DHT22;3806;52.270;10.544;2023-07-29T05:42:22;21.50;99.90
7530;DHT22;3806;52.270;10.544;2023-07-29T05:44:48;21.40;99.90
7530;DHT22;3806;52.270;10.544;2023-07-29T05:47:13;21.40;99.90
7530;DHT22;3806;52.270;10.544;2023-07-29T05:49:39;21.40;99.90
7530;DHT22;3806;52.270;10.544;2023-07-29T05:52:05;21.50;99.90
7530;DHT22;3806;52.270;10.544;2023-07-29T05:54:30;21.50;99.90
7530;DHT22;3806;52.270;10.544;2023-07-29T05:56:56;21.50;99.90
7530;DHT22;3806;52.270;10.544;2023-07-29T05:59:21;21.50;99.90
7530;DHT22;3806;52.270;10.544;2023-07-29T06:01:47;21.50;99.90
7530;DHT22;3806;52.270;10.544;2023-07-29T06:04:12;21.50;99.90
7530;DHT22;3806;52.270;10.544;2023-07-29T06:06:38;21.40;99.90
7530;DHT22;3806;52.270;10.544;2023-07-29T06:09:04;21.40;99.90
7530;DHT22;3806;52.270;10.544;2023-07-29T06:11:29;21.30;99.90
7530;DHT22;3806;52.270;10.544;2023-07-29T06:13:55;21.20;99.90
7530;DHT22;3806;52.270;10.544;2023-07-29T06:16:20;21.20;99.90
7530;DHT22;3806;52.270;10.544;2023-07-29T06:18:46;21.10;99.90
7530;DHT22;3806;52.270;10.544;2023-07-29T06:21:11;21.10;99.90
7530;DHT22;3806;52.270;10.544;2023-07-29T06:23:44;21.00;99.90
7530;DHT22;3806;52.270;10.544;2023-07-29T06:26:10;21.00;99.90
7530;DHT22;3806;52.270;10.544;2023-07-29T06:28:35;20.90;99.90
7530;DHT22;3806;52.270;10.544;2023-07-29T06:31:01;20.90;99.90
7530;DHT22;3806;52.270;10.544;2023-07-29T06:33:27;20.90;99.90
7530;DHT22;3806;52.270;10.544;2023-07-29T06:35:52;20.80;99.90
7530;DHT22;3806;52.270;10.544;2023-07-29T06:38:18;20.80;99.90
7530;DHT22;3806;52.270;10.544;2023-07-29T06:40:47;20.80;99.90
7530;DHT22;3806;52.270;10.544;2023-07-29T06:43:13;20.70;99.90
7530;DHT22;3806;52.270;10.544;2023-07-29T06:45:38;20.70;99.90
7530;DHT22;3806;52.270;10.544;2023-07-29T06:48:04;20.60;99.90
7530;DHT22;3806;52.270;10.544;2023-07-29T06:50:30;20.60;99.90
7530;DHT22;3806;52.270;10.544;2023-07-29T06:52:55;20.60;99.90
7530;DHT22;3806;52.270;10.544;2023-07-29T06:55:21;20.60;99.90
7530;DHT22;3806;52.270;10.544;2023-07-29T06:57:46;20.60;99.90
7530;DHT22;3806;52.270;10.544;2023-07-29T07:00:12;20.50;99.90
7530;DHT22;3806;52.270;10.544;2023-07-29T07:02:37;20.50;99.90
7530;DHT22;3806;52.270;10.544;2023-07-29T07:05:03;20.50;99.90
7530;DHT22;3806;52.270;10.544;2023-07-29T07:07:29;20.40;99.90
7530;DHT22;3806;52.270;10.544;2023-07-29T07:09:54;20.50;99.90
7530;DHT22;3806;52.270;10.544;2023-07-29T07:12:20;20.40;99.90
7530;DHT22;3806;52.270;10.544;2023-07-29T07:14:45;20.40;99.90
7530;DHT22;3806;52.270;10.544;2023-07-29T07:17:11;20.30;99.90
7530;DHT22;3806;52.270;10.544;2023-07-29T07:19:36;20.30;99.90
7530;DHT22;3806;52.270;10.544;2023-07-29T07:22:02;20.30;99.90
7530;DHT22;3806;52.270;10.544;2023-07-29T07:24:28;20.30;99.90
7530;DHT22;3806;52.270;10.544;2023-07-29T07:26:53;20.30;99.90
7530;DHT22;3806;52.270;10.544;2023-07-29T07:29:19;20.40;99.90
7530;DHT22;3806;52.270;10.544;2023-07-29T07:31:51;20.40;99.90
7530;DHT22;3806;52.270;10.544;2023-07-29T07:34:18;20.50;99.90
7530;DHT22;3806;52.270;10.544;2023-07-29T07:36:44;20.50;99.90
7530;DHT22;3806;52.270;10.544;2023-07-29T07:39:09;20.60;99.90
7530;DHT22;3806;52.270;10.544;2023-07-29T07:41:35;20.60;99.90
7530;DHT22;3806;52.270;10.544;2023-07-29T07:44:00;20.60;99.90
7530;DHT22;3806;52.270;10.544;2023-07-29T07:46:26;20.70;99.90
7530;DHT22;3806;52.270;10.544;2023-07-29T07:48:51;20.70;99.90
7530;DHT22;3806;52.270;10.544;2023-07-29T07:51:17;20.90;99.90
7530;DHT22;3806;52.270;10.544;2023-07-29T07:53:42;21.00;99.90
7530;DHT22;3806;52.270;10.544;2023-07-29T07:56:08;21.10;99.90
7530;DHT22;3806;52.270;10.544;2023-07-29T07:58:34;21.20;99.90
7530;DHT22;3806;52.270;10.544;2023-07-29T08:01:03;21.30;99.90
7530;DHT22;3806;52.270;10.544;2023-07-29T08:03:29;21.30;99.90
7530;DHT22;3806;52.270;10.544;2023-07-29T08:05:55;21.30;99.90
7530;DHT22;3806;52.270;10.544;2023-07-29T08:08:21;21.30;99.90
7530;DHT22;3806;52.270;10.544;2023-07-29T08:10:46;21.40;99.90
7530;DHT22;3806;52.270;10.544;2023-07-29T08:13:12;21.40;99.90
7530;DHT22;3806;52.270;10.544;2023-07-29T08:15:37;21.50;99.90
7530;DHT22;3806;52.270;10.544;2023-07-29T08:18:03;21.70;99.90
7530;DHT22;3806;52.270;10.544;2023-07-29T08:20:28;21.90;99.90
7530;DHT22;3806;52.270;10.544;2023-07-29T08:22:54;22.20;99.90
7530;DHT22;3806;52.270;10.544;2023-07-29T08:25:19;22.60;99.90
7530;DHT22;3806;52.270;10.544;2023-07-29T08:27:45;23.00;99.90
7530;DHT22;3806;52.270;10.544;2023-07-29T08:30:11;23.30;99.90
7530;DHT22;3806;52.270;10.544;2023-07-29T08:32:36;23.50;99.90
7530;DHT22;3806;52.270;10.544;2023-07-29T08:35:02;23.70;99.90
7530;DHT22;3806;52.270;10.544;2023-07-29T08:37:27;23.90;99.90
7530;DHT22;3806;52.270;10.544;2023-07-29T08:39:53;24.00;99.90
7530;DHT22;3806;52.270;10.544;2023-07-29T08:42:23;24.20;99.90
7530;DHT22;3806;52.270;10.544;2023-07-29T08:44:50;24.40;99.90
7530;DHT22;3806;52.270;10.544;2023-07-29T08:47:16;24.80;99.90
7530;DHT22;3806;52.270;10.544;2023-07-29T08:49:42;24.90;99.90
7530;DHT22;3806;52.270;10.544;2023-07-29T08:52:09;25.00;99.90
7530;DHT22;3806;52.270;10.544;2023-07-29T08:54:35;25.00;99.90
7530;DHT22;3806;52.270;10.544;2023-07-29T08:57:04;24.90;99.90
7530;DHT22;3806;52.270;10.544;2023-07-29T08:59:30;24.80;99.90
7530;DHT22;3806;52.270;10.544;2023-07-29T09:01:56;24.60;99.90
7530;DHT22;3806;52.270;10.544;2023-07-29T09:04:22;24.40;99.90
7530;DHT22;3806;52.270;10.544;2023-07-29T09:06:50;24.30;99.90
7530;DHT22;3806;52.270;10.544;2023-07-29T09:09:16;24.20;99.90
7530;DHT22;3806;52.270;10.544;2023-07-29T09:11:43;24.20;99.90
7530;DHT22;3806;52.270;10.544;2023-07-29T09:14:09;24.10;99.90
7530;DHT22;3806;52.270;10.544;2023-07-29T09:16:38;24.10;99.90
7530;DHT22;3806;52.270;10.544;2023-07-29T09:19:04;24.10;99.90
7530;DHT22;3806;52.270;10.544;2023-07-29T09:21:30;24.00;99.90
7530;DHT22;3806;52.270;10.544;2023-07-29T09:23:56;23.90;99.90
7530;DHT22;3806;52.270;10.544;2023-07-29T09:26:26;23.70;99.90
7530;DHT22;3806;52.270;10.544;2023-07-29T09:28:56;23.60;99.90
7530;DHT22;3806;52.270;10.544;2023-07-29T09:31:23;23.50;99.90
7530;DHT22;3806;52.270;10.544;2023-07-29T09:33:49;23.30;99.90
7530;DHT22;3806;52.270;10.544;2023-07-29T09:36:16;23.30;99.90
7530;DHT22;3806;52.270;10.544;2023-07-29T09:38:43;23.20;99.90
7530;DHT22;3806;52.270;10.544;2023-07-29T09:41:12;23.30;99.90
7530;DHT22;3806;52.270;10.544;2023-07-29T09:43:39;23.40;99.90
7530;DHT22;3806;52.270;10.544;2023-07-29T09:46:05;23.60;99.90
7530;DHT22;3806;52.270;10.544;2023-07-29T09:48:40;23.70;99.90
7530;DHT22;3806;52.270;10.544;2023-07-29T09:51:14;23.80;99.90
7530;DHT22;3806;52.270;10.544;2023-07-29T09:53:44;23.90;99.90
7530;DHT22;3806;52.270;10.544;2023-07-29T09:56:10;23.80;99.90
7530;DHT22;3806;52.270;10.544;2023-07-29T09:58:36;23.90;99.90
7530;DHT22;3806;52.270;10.544;2023-07-29T10:01:04;23.80;99.90
7530;DHT22;3806;52.270;10.544;2023-07-29T10:03:31;23.70;99.90
7530;DHT22;3806;52.270;10.544;2023-07-29T10:06:03;23.60;99.90
7530;DHT22;3806;52.270;10.544;2023-07-29T10:08:33;23.50;99.90
7530;DHT22;3806;52.270;10.544;2023-07-29T10:11:06;23.50;99.90
7530;DHT22;3806;52.270;10.544;2023-07-29T10:13:34;23.60;99.90
7530;DHT22;3806;52.270;10.544;2023-07-29T10:16:01;23.70;99.90
7530;DHT22;3806;52.270;10.544;2023-07-29T10:18:28;23.80;99.90
7530;DHT22;3806;52.270;10.544;2023-07-29T10:20:58;24.10;99.90
7530;DHT22;3806;52.270;10.544;2023-07-29T10:23:27;24.30;99.90
7530;DHT22;3806;52.270;10.544;2023-07-29T10:26:04;24.60;99.90
7530;DHT22;3806;52.270;10.544;2023-07-29T10:28:31;24.90;99.90
7530;DHT22;3806;52.270;10.544;2023-07-29T10:30:57;25.40;99.90
7530;DHT22;3806;52.270;10.544;2023-07-29T10:33:23;25.80;99.90
7530;DHT22;3806;52.270;10.544;2023-07-29T10:35:49;26.20;99.90
7530;DHT22;3806;52.270;10.544;2023-07-29T10:38:16;26.60;99.90
7530;DHT22;3806;52.270;10.544;2023-07-29T10:40:57;26.90;99.90
7530;DHT22;3806;52.270;10.544;2023-07-29T10:43:28;26.90;99.90
7530;DHT22;3806;52.270;10.544;2023-07-29T10:45:57;26.70;99.90
7530;DHT22;3806;52.270;10.544;2023-07-29T10:51:25;26.20;99.90
7530;DHT22;3806;52.270;10.544;2023-07-29T10:54:09;26.10;99.90
7530;DHT22;3806;52.270;10.544;2023-07-29T10:56:36;26.00;99.90
7530;DHT22;3806;52.270;10.544;2023-07-29T11:01:42;26.00;99.90
7530;DHT22;3806;52.270;10.544;2023-07-29T11:07:18;26.60;99.90
7530;DHT22;3806;52.270;10.544;2023-07-29T11:12:42;27.00;99.90
7530;DHT22;3806;52.270;10.544;2023-07-29T11:15:23;27.00;99.90
7530;DHT22;3806;52.270;10.544;2023-07-29T11:17:56;27.00;99.90
7530;DHT22;3806;52.270;10.544;2023-07-29T11:20:32;27.00;99.90
7530;DHT22;3806;52.270;10.544;2023-07-29T11:23:00;26.90;99.90
7530;DHT22;3806;52.270;10.544;2023-07-29T11:25:29;26.60;99.90
7530;DHT22;3806;52.270;10.544;2023-07-29T11:27:56;26.40;99.90
7530;DHT22;3806;52.270;10.544;2023-07-29T11:30:25;26.20;99.90
7530;DHT22;3806;52.270;10.544;2023-07-29T11:32:55;26.00;99.90
7530;DHT22;3806;52.270;10.544;2023-07-29T11:35:21;25.80;99.90
7530;DHT22;3806;52.270;10.544;2023-07-29T11:37:48;25.60;99.90
7530;DHT22;3806;52.270;10.544;2023-07-29T11:40:19;25.40;99.90
7530;DHT22;3806;52.270;10.544;2023-07-29T11:42:46;25.20;99.90
7530;DHT22;3806;52.270;10.544;2023-07-29T11:45:13;25.00;99.90
7530;DHT22;3806;52.270;10.544;2023-07-29T11:47:38;25.00;99.90
7530;DHT22;3806;52.270;10.544;2023-07-29T11:50:06;24.90;99.90
7530;DHT22;3806;52.270;10.544;2023-07-29T11:52:38;24.90;99.90
7530;DHT22;3806;52.270;10.544;2023-07-29T11:55:05;25.00;99.90
7530;DHT22;3806;52.270;10.544;2023-07-29T11:57:33;25.30;99.90
7530;DHT22;3806;52.270;10.544;2023-07-29T12:00:02;25.60;99.90
7530;DHT22;3806;52.270;10.544;2023-07-29T12:02:29;26.00;99.90
7530;DHT22;3806;52.270;10.544;2023-07-29T12:04:56;26.20;99.90
7530;DHT22;3806;52.270;10.544;2023-07-29T12:07:22;26.50;99.90
7530;DHT22;3806;52.270;10.544;2023-07-29T12:09:49;26.60;99.90
7530;DHT22;3806;52.270;10.544;2023-07-29T12:12:15;26.70;99.90
7530;DHT22;3806;52.270;10.544;2023-07-29T12:14:44;26.80;99.90
7530;DHT22;3806;52.270;10.544;2023-07-29T12:17:10;26.90;99.80
7530;DHT22;3806;52.270;10.544;2023-07-29T12:19:37;26.90;99.60
7530;DHT22;3806;52.270;10.544;2023-07-29T12:22:04;26.70;99.40
7530;DHT22;3806;52.270;10.544;2023-07-29T12:24:31;26.40;99.40
7530;DHT22;3806;52.270;10.544;2023-07-29T12:27:01;26.10;98.40
7530;DHT22;3806;52.270;10.544;2023-07-29T12:29:27;26.00;98.70
7530;DHT22;3806;52.270;10.544;2023-07-29T12:32:03;25.90;99.20
7530;DHT22;3806;52.270;10.544;2023-07-29T12:34:30;26.10;99.60
7530;DHT22;3806;52.270;10.544;2023-07-29T12:36:57;26.30;99.10
7530;DHT22;3806;52.270;10.544;2023-07-29T12:39:31;26.50;97.70
7530;DHT22;3806;52.270;10.544;2023-07-29T12:41:58;26.70;96.90
7530;DHT22;3806;52.270;10.544;2023-07-29T12:44:31;26.90;96.30
7530;DHT22;3806;52.270;10.544;2023-07-29T12:46:57;27.00;95.70
7530;DHT22;3806;52.270;10.544;2023-07-29T12:49:22;27.10;95.50
7530;DHT22;3806;52.270;10.544;2023-07-29T12:51:48;27.10;93.00
7530;DHT22;3806;52.270;10.544;2023-07-29T12:54:14;27.10;89.40
7530;DHT22;3806;52.270;10.544;2023-07-29T12:56:39;27.10;85.40
7530;DHT22;3806;52.270;10.544;2023-07-29T12:59:05;27.20;86.80
7530;DHT22;3806;52.270;10.544;2023-07-29T13:01:31;27.20;86.80
7530;DHT22;3806;52.270;10.544;2023-07-29T13:03:56;27.20;87.00
7530;DHT22;3806;52.270;10.544;2023-07-29T13:06:22;27.20;87.60
7530;DHT22;3806;52.270;10.544;2023-07-29T13:08:48;27.30;88.00
7530;DHT22;3806;52.270;10.544;2023-07-29T13:11:15;27.30;86.20
7530;DHT22;3806;52.270;10.544;2023-07-29T13:13:40;27.20;81.50
7530;DHT22;3806;52.270;10.544;2023-07-29T13:16:06;27.10;83.10
7530;DHT22;3806;52.270;10.544;2023-07-29T13:18:32;27.20;82.30
7530;DHT22;3806;52.270;10.544;2023-07-29T13:20:57;27.10;82.40
7530;DHT22;3806;52.270;10.544;2023-07-29T13:23:24;27.20;81.80
7530;DHT22;3806;52.270;10.544;2023-07-29T13:25:49;27.20;80.00
7530;DHT22;3806;52.270;10.544;2023-07-29T13:28:16;27.20;76.30
7530;DHT22;3806;52.270;10.544;2023-07-29T13:30:42;27.20;76.40
7530;DHT22;3806;52.270;10.544;2023-07-29T13:33:08;27.10;75.50
7530;DHT22;3806;52.270;10.544;2023-07-29T13:35:34;27.10;74.60
7530;DHT22;3806;52.270;10.544;2023-07-29T13:38:02;27.10;74.60
7530;DHT22;3806;52.270;10.544;2023-07-29T13:40:28;27.10;75.80
7530;DHT22;3806;52.270;10.544;2023-07-29T13:42:54;27.10;73.80
7530;DHT22;3806;52.270;10.544;2023-07-29T13:45:20;27.20;73.10
7530;DHT22;3806;52.270;10.544;2023-07-29T13:47:46;27.10;72.00
7530;DHT22;3806;52.270;10.544;2023-07-29T13:50:11;27.00;73.00
7530;DHT22;3806;52.270;10.544;2023-07-29T13:52:37;26.80;72.70
7530;DHT22;3806;52.270;10.544;2023-07-29T13:55:04;26.70;71.10
7530;DHT22;3806;52.270;10.544;2023-07-29T13:57:30;26.60;69.30
7530;DHT22;3806;52.270;10.544;2023-07-29T13:59:55;26.60;66.90
7530;DHT22;3806;52.270;10.544;2023-07-29T14:02:21;26.60;67.10
7530;DHT22;3806;52.270;10.544;2023-07-29T14:04:46;26.60;64.60
7530;DHT22;3806;52.270;10.544;2023-07-29T14:07:12;26.60;62.90
7530;DHT22;3806;52.270;10.544;2023-07-29T14:09:37;26.60;62.50
7530;DHT22;3806;52.270;10.544;2023-07-29T14:12:04;26.50;63.00
7530;DHT22;3806;52.270;10.544;2023-07-29T14:14:30;26.50;63.60
7530;DHT22;3806;52.270;10.544;2023-07-29T14:16:58;26.50;65.40
7530;DHT22;3806;52.270;10.544;2023-07-29T14:19:24;26.50;66.20
7530;DHT22;3806;52.270;10.544;2023-07-29T14:21:49;26.50;65.40
7530;DHT22;3806;52.270;10.544;2023-07-29T14:24:15;26.50;63.70
7530;DHT22;3806;52.270;10.544;2023-07-29T14:26:42;26.40;63.30
7530;DHT22;3806;52.270;10.544;2023-07-29T14:29:07;26.40;63.30
7530;DHT22;3806;52.270;10.544;2023-07-29T14:31:32;26.30;63.60
7530;DHT22;3806;52.270;10.544;2023-07-29T14:33:58;26.40;64.20
7530;DHT22;3806;52.270;10.544;2023-07-29T14:36:25;26.40;65.30
7530;DHT22;3806;52.270;10.544;2023-07-29T14:38:50;26.40;66.40
7530;DHT22;3806;52.270;10.544;2023-07-29T14:41:16;26.40;65.70
7530;DHT22;3806;52.270;10.544;2023-07-29T14:43:41;26.40;66.80
7530;DHT22;3806;52.270;10.544;2023-07-29T14:46:07;26.50;67.00
7530;DHT22;3806;52.270;10.544;2023-07-29T14:48:33;26.40;66.10
7530;DHT22;3806;52.270;10.544;2023-07-29T14:50:58;26.40;64.90
7530;DHT22;3806;52.270;10.544;2023-07-29T14:53:24;26.40;65.50
7530;DHT22;3806;52.270;10.544;2023-07-29T14:55:55;26.20;64.90
7530;DHT22;3806;52.270;10.544;2023-07-29T14:58:21;26.20;65.60
7530;DHT22;3806;52.270;10.544;2023-07-29T15:00:46;26.20;67.10
7530;DHT22;3806;52.270;10.544;2023-07-29T15:03:12;26.10;67.60
7530;DHT22;3806;52.270;10.544;2023-07-29T15:05:38;26.10;67.70
7530;DHT22;3806;52.270;10.544;2023-07-29T15:08:03;26.00;67.60
7530;DHT22;3806;52.270;10.544;2023-07-29T15:10:29;26.00;67.40
7530;DHT22;3806;52.270;10.544;2023-07-29T15:12:54;25.90;68.10
7530;DHT22;3806;52.270;10.544;2023-07-29T15:15:20;25.90;67.90
7530;DHT22;3806;52.270;10.544;2023-07-29T15:17:46;25.80;66.10
7530;DHT22;3806;52.270;10.544;2023-07-29T15:20:11;25.80;66.80
7530;DHT22;3806;52.270;10.544;2023-07-29T15:22:37;25.80;67.50
7530;DHT22;3806;52.270;10.544;2023-07-29T15:25:04;25.80;66.70
7530;DHT22;3806;52.270;10.544;2023-07-29T15:27:30;25.80;67.10
7530;DHT22;3806;52.270;10.544;2023-07-29T15:29:56;25.80;68.00
7530;DHT22;3806;52.270;10.544;2023-07-29T15:32:22;25.80;67.80
7530;DHT22;3806;52.270;10.544;2023-07-29T15:34:51;25.80;68.10
7530;DHT22;3806;52.270;10.544;2023-07-29T15:37:17;25.90;68.80
7530;DHT22;3806;52.270;10.544;2023-07-29T15:39:45;25.90;69.10
7530;DHT22;3806;52.270;10.544;2023-07-29T15:42:10;25.90;69.10
7530;DHT22;3806;52.270;10.544;2023-07-29T15:44:36;25.90;69.20
7530;DHT22;3806;52.270;10.544;2023-07-29T15:47:02;26.00;69.40
7530;DHT22;3806;52.270;10.544;2023-07-29T15:49:28;25.90;69.40
7530;DHT22;3806;52.270;10.544;2023-07-29T15:51:54;25.90;69.80
7530;DHT22;3806;52.270;10.544;2023-07-29T15:54:19;25.80;69.80
7530;DHT22;3806;52.270;10.544;2023-07-29T15:56:47;25.80;69.20
7530;DHT22;3806;52.270;10.544;2023-07-29T15:59:13;25.80;69.60